Time;durP1;ratioP1;P1;durP2;ratioP2;P2;SDS_P1;SDS_P2;PMS_P1;PMS_P2;Temp;Humidity;BMP_temperature;BMP_pressure;BME280_temperature;BME280_humidity;BME280_pressure;Samples;Min_cycle;Max_cycle;Signal;HPM_P1;HPM_P2
2022/11/04 00:01:47;;;;;;;2.70;1.88;;;11.50;66.80;;;;;;5008558;28;20504;-71
2022/11/04 00:04:15;;;;;;;2.25;1.90;;;11.50;66.70;;;;;;5021161;28;20038;-71
2022/11/04 00:06:42;;;;;;;2.60;1.80;;;11.50;66.90;;;;;;5020372;28;20037;-72
2022/11/04 00:09:10;;;;;;;2.20;1.88;;;11.50;66.90;;;;;;5006686;28;20025;-72
2022/11/04 00:14:21;;;;;;;2.67;2.10;;;11.50;66.60;;;;;;5003786;28;20025;-70
2022/11/04 00:30:29;;;;;;;2.83;2.10;;;11.50;66.90;;;;;;5022930;28;20038;-73
2022/11/04 00:35:39;;;;;;;4.15;1.77;;;11.50;66.70;;;;;;5023316;28;20045;-72
2022/11/04 00:38:05;;;;;;;3.85;2.08;;;11.50;66.90;;;;;;5008295;28;20030;-72
2022/11/04 00:40:31;;;;;;;4.43;2.15;;;11.50;66.90;;;;;;5021962;28;20073;-72
2022/11/04 00:42:57;;;;;;;2.58;2.20;;;11.50;66.90;;;;;;5020973;28;20111;-70
2022/11/04 00:45:23;;;;;;;2.47;2.00;;;11.50;66.80;;;;;;5020538;28;20026;-71
2022/11/04 00:47:49;;;;;;;4.75;1.98;;;11.50;66.90;;;;;;5020268;28;20030;-72
2022/11/04 00:50:15;;;;;;;2.17;1.98;;;11.50;66.90;;;;;;5002974;28;20544;-72
2022/11/04 00:52:41;;;;;;;3.03;2.08;;;11.50;66.90;;;;;;5020967;28;20045;-72
2022/11/04 00:55:07;;;;;;;3.60;2.17;;;11.50;66.90;;;;;;5024780;28;20496;-72
2022/11/04 00:57:33;;;;;;;2.38;2.10;;;11.50;66.80;;;;;;5020538;28;20041;-72
2022/11/04 00:59:58;;;;;;;2.13;1.90;;;11.50;66.70;;;;;;5019961;28;20056;-72
2022/11/04 01:02:25;;;;;;;2.08;1.83;;;11.50;66.70;;;;;;5021337;28;20087;-72
2022/11/04 01:04:51;;;;;;;1.95;1.73;;;11.50;66.70;;;;;;5001871;28;20022;-72
2022/11/04 01:07:17;;;;;;;2.20;2.00;;;11.50;66.60;;;;;;5008134;28;20037;-72
2022/11/04 01:09:43;;;;;;;2.38;2.17;;;11.60;66.60;;;;;;5019736;28;20131;-72
2022/11/04 01:12:09;;;;;;;3.20;2.03;;;11.50;66.60;;;;;;5023511;28;20033;-72
2022/11/04 01:14:35;;;;;;;2.83;2.10;;;11.60;66.60;;;;;;5021098;28;20044;-72
2022/11/04 01:17:00;;;;;;;2.33;2.13;;;11.60;66.60;;;;;;5007417;28;20037;-72
2022/11/04 01:19:26;;;;;;;4.53;2.50;;;11.60;66.70;;;;;;5002459;28;20184;-72
2022/11/04 01:21:52;;;;;;;2.97;2.47;;;11.60;66.70;;;;;;5020433;28;20060;-72
2022/11/04 01:24:18;;;;;;;2.58;2.30;;;11.60;66.60;;;;;;5002067;28;20034;-72
2022/11/04 01:26:44;;;;;;;2.95;2.28;;;11.60;66.60;;;;;;5021290;28;20026;-72
2022/11/04 01:29:10;;;;;;;3.58;2.45;;;11.60;66.60;;;;;;5020241;28;20045;-72
2022/11/04 01:31:36;;;;;;;5.30;3.10;;;11.60;66.70;;;;;;5021768;28;20411;-72
2022/11/04 01:34:02;;;;;;;3.72;2.78;;;11.60;66.60;;;;;;5021330;28;20109;-72
2022/11/04 01:36:28;;;;;;;3.35;2.42;;;11.60;66.50;;;;;;5022563;28;20112;-72
2022/11/04 01:38:56;;;;;;;3.65;2.70;;;11.60;66.40;;;;;;5024422;28;20037;-72
2022/11/04 01:41:24;;;;;;;6.05;2.42;;;11.60;66.40;;;;;;5024080;28;20083;-72
2022/11/04 01:44:22;;;;;;;3.80;2.85;;;11.60;66.40;;;;;;5010882;28;20382;-72
2022/11/04 01:46:51;;;;;;;4.38;2.95;;;11.60;66.40;;;;;;5024786;28;20079;-72
2022/11/04 01:49:34;;;;;;;4.25;2.70;;;11.60;66.40;;;;;;5022435;28;20049;-72
2022/11/04 01:52:05;;;;;;;2.78;2.45;;;11.60;66.30;;;;;;5026148;28;20037;-72
2022/11/04 01:54:33;;;;;;;2.63;2.42;;;11.60;66.30;;;;;;5023647;28;20400;-72
2022/11/04 01:57:01;;;;;;;2.60;2.28;;;11.60;66.30;;;;;;5028342;28;20407;-72
2022/11/04 01:59:31;;;;;;;3.28;2.70;;;11.60;66.40;;;;;;5023892;28;20524;-72
2022/11/04 02:01:57;;;;;;;3.30;2.55;;;11.60;66.30;;;;;;5024798;28;20060;-72
2022/11/04 02:04:27;;;;;;;3.53;2.40;;;11.60;66.40;;;;;;5023768;28;20453;-72
2022/11/04 02:07:01;;;;;;;2.85;2.30;;;11.60;66.30;;;;;;5025390;28;20037;-72
2022/11/04 02:09:30;;;;;;;2.57;2.37;;;11.60;66.30;;;;;;5024984;28;20038;-71
2022/11/04 02:14:42;;;;;;;3.00;2.22;;;11.60;66.20;;;;;;5022587;28;20033;-72
2022/11/04 02:17:43;;;;;;;5.10;2.58;;;11.60;66.20;;;;;;5024433;28;20035;-72
2022/11/04 02:20:30;;;;;;;4.05;2.30;;;11.60;66.20;;;;;;5025875;28;20046;-72
2022/11/04 02:23:17;;;;;;;3.00;2.13;;;11.60;66.10;;;;;;5024148;28;20116;-71
2022/11/04 02:25:55;;;;;;;3.08;2.72;;;11.60;66.00;;;;;;5022876;28;20087;-71
2022/11/04 02:28:43;;;;;;;4.15;2.10;;;11.60;66.20;;;;;;5023976;28;20136;-71
2022/11/04 02:31:33;;;;;;;3.50;2.30;;;11.60;66.20;;;;;;5026947;28;20125;-71
2022/11/04 02:34:14;;;;;;;3.75;2.40;;;11.60;66.70;;;;;;5033463;28;20056;-71
2022/11/04 02:36:46;;;;;;;3.05;2.40;;;11.60;66.00;;;;;;5034373;28;20412;-71
2022/11/04 02:39:24;;;;;;;4.03;2.45;;;11.70;66.10;;;;;;5023722;28;20083;-71
2022/11/04 02:42:08;;;;;;;3.53;2.28;;;11.60;66.00;;;;;;5023893;28;20091;-72
2022/11/04 02:44:47;;;;;;;4.95;2.70;;;11.60;66.00;;;;;;5022588;28;20511;-72
2022/11/04 02:47:18;;;;;;;3.25;2.20;;;11.60;66.00;;;;;;5006150;28;20623;-71
2022/11/04 02:50:04;;;;;;;4.45;2.53;;;11.70;65.90;;;;;;5024434;28;20053;-71
2022/11/04 02:52:34;;;;;;;;;;;11.70;66.00;;;;;;4924327;29;20047;-71
2022/11/04 02:55:05;;;;;;;2.75;2.28;;;11.70;65.90;;;;;;4923941;29;19914;-71
2022/11/04 02:57:35;;;;;;;2.92;2.42;;;11.60;65.90;;;;;;4911434;29;20047;-71
2022/11/04 03:00:05;;;;;;;2.53;2.20;;;11.70;65.90;;;;;;4923163;29;20043;-71
2022/11/04 03:02:42;;;;;;;3.25;2.10;;;11.60;65.80;;;;;;4923889;29;20027;-71
2022/11/04 03:05:13;;;;;;;4.03;2.40;;;11.70;66.00;;;;;;4922824;29;20079;-73
2022/11/04 03:07:41;;;;;;;2.88;2.30;;;11.70;66.00;;;;;;4924705;29;20063;-72
2022/11/04 03:10:23;;;;;;;2.75;2.40;;;11.70;66.00;;;;;;4921825;29;20519;-72
2022/11/04 03:13:09;;;;;;;2.58;2.38;;;11.70;65.80;;;;;;4923511;29;20689;-72
2022/11/04 03:15:37;;;;;;;4.10;2.30;;;11.70;65.80;;;;;;4923076;29;20043;-73
2022/11/04 03:18:38;;;;;;;3.08;2.03;;;11.70;65.60;;;;;;4925203;29;20044;-73
2022/11/04 03:21:10;;;;;;;2.95;2.40;;;11.70;66.30;;;;;;4922722;29;20061;-73
2022/11/04 03:23:36;;;;;;;2.80;2.50;;;11.70;65.50;;;;;;4907710;29;20050;-73
2022/11/04 03:26:17;;;;;;;3.05;2.10;;;11.70;65.70;;;;;;4923047;29;20032;-73
2022/11/04 03:29:11;;;;;;;3.35;2.60;;;11.70;65.70;;;;;;4935815;28;20032;-73
2022/11/04 03:31:59;;;;;;;3.75;2.53;;;11.70;65.50;;;;;;5021170;28;20049;-73
2022/11/04 03:34:25;;;;;;;2.90;2.15;;;11.70;65.50;;;;;;5020935;28;20401;-73
2022/11/04 03:36:51;;;;;;;2.75;2.38;;;11.70;65.50;;;;;;5021589;28;20033;-73
2022/11/04 03:39:17;;;;;;;3.47;2.55;;;11.70;65.50;;;;;;5022560;28;20041;-73
2022/11/04 03:41:50;;;;;;;3.60;2.40;;;11.70;65.40;;;;;;5022912;28;20025;-73
2022/11/04 03:44:16;;;;;;;3.90;2.47;;;11.70;65.10;;;;;;5020691;28;20091;-73
2022/11/04 03:46:41;;;;;;;3.72;2.33;;;11.70;65.10;;;;;;5004134;28;20448;-73
2022/11/04 03:49:08;;;;;;;3.30;2.42;;;11.70;65.20;;;;;;5020971;28;20029;-73
2022/11/04 03:51:34;;;;;;;4.80;2.40;;;11.70;65.20;;;;;;5021334;28;20045;-73
2022/11/04 03:54:00;;;;;;;3.60;2.30;;;11.70;65.20;;;;;;5022697;28;20037;-74
2022/11/04 03:57:11;;;;;;;3.60;2.80;;;11.70;64.90;;;;;;5022594;28;20022;-74
2022/11/04 04:00:05;;;;;;;4.30;2.70;;;11.60;64.90;;;;;;4942600;28;20094;-73
2022/11/04 04:02:52;;;;;;;3.38;2.20;;;11.70;65.10;;;;;;4942656;28;20032;-74
2022/11/04 04:05:20;;;;;;;;;;;11.70;65.00;;;;;;4939993;28;20031;-74
2022/11/04 04:08:08;;;;;;;3.45;2.30;;;11.60;64.90;;;;;;4942300;28;19918;-74
2022/11/04 04:10:42;;;;;;;3.92;2.50;;;11.70;64.90;;;;;;4942480;28;20412;-73
2022/11/04 04:13:33;;;;;;;2.90;2.08;;;11.70;65.00;;;;;;4943328;28;20155;-73
2022/11/04 04:16:15;;;;;;;3.55;2.15;;;11.70;64.90;;;;;;4941062;28;20035;-73
2022/11/04 04:18:51;;;;;;;5.07;2.25;;;11.60;64.70;;;;;;4941657;28;20039;-73
2022/11/04 04:21:28;;;;;;;;;;;11.60;64.30;;;;;;4942091;28;20035;-73
2022/11/04 04:29:29;;;;;;;2.70;2.30;;;11.60;64.30;;;;;;4943321;29;20126;-73
2022/11/04 04:31:57;;;;;;;2.90;2.35;;;11.60;64.80;;;;;;4940429;28;20067;-73
2022/11/04 04:34:28;;;;;;;4.28;2.45;;;11.60;64.30;;;;;;4943213;28;20450;-74
2022/11/04 04:37:19;;;;;;;3.78;2.80;;;11.60;64.20;;;;;;4995938;28;20045;-73
2022/11/04 04:45:51;;;;;;;5.40;2.13;;;11.60;64.10;;;;;;4964047;28;20587;-73
2022/11/04 04:48:18;;;;;;;2.53;2.08;;;11.60;64.30;;;;;;4964680;28;20035;-72
2022/11/04 04:50:49;;;;;;;3.13;2.58;;;11.70;64.20;;;;;;4963801;28;20050;-73
2022/11/04 04:53:15;;;;;;;3.00;2.20;;;11.60;64.00;;;;;;4964774;28;20089;-73
2022/11/04 04:55:41;;;;;;;2.28;1.60;;;11.60;63.60;;;;;;4948107;28;20031;-74
2022/11/04 04:58:07;;;;;;;2.80;2.03;;;11.70;63.70;;;;;;4965949;28;20037;-73
2022/11/04 05:00:33;;;;;;;2.90;2.13;;;11.60;63.70;;;;;;4964552;28;20059;-74
2022/11/04 05:02:59;;;;;;;3.05;2.28;;;11.60;63.60;;;;;;4964152;28;20093;-73
2022/11/04 05:05:24;;;;;;;2.60;2.20;;;11.60;63.50;;;;;;4947649;28;20026;-73
2022/11/04 05:07:50;;;;;;;3.65;2.00;;;11.60;63.50;;;;;;4964604;28;20073;-73
2022/11/04 05:10:17;;;;;;;2.15;1.85;;;11.60;63.30;;;;;;4964384;28;20038;-73
2022/11/04 05:15:28;;;;;;;3.67;2.38;;;11.60;63.40;;;;;;5006200;28;20124;-72
2022/11/04 05:17:59;;;;;;;2.40;2.15;;;11.60;64.30;;;;;;5018794;28;20037;-75
2022/11/04 05:20:25;;;;;;;4.65;2.40;;;11.70;64.40;;;;;;5003188;28;20033;-74
2022/11/04 05:22:53;;;;;;;2.47;2.25;;;11.60;64.00;;;;;;5020878;28;20036;-73
2022/11/04 05:25:19;;;;;;;4.28;2.35;;;11.70;63.90;;;;;;5020572;28;20515;-74
2022/11/04 05:27:44;;;;;;;5.22;2.25;;;11.70;63.80;;;;;;5020523;28;20061;-73
2022/11/04 05:30:11;;;;;;;3.22;2.35;;;11.70;63.80;;;;;;5020334;28;20029;-74
2022/11/04 05:32:37;;;;;;;4.07;2.50;;;11.60;63.70;;;;;;5020220;28;20777;-74
2022/11/04 05:35:03;;;;;;;3.55;2.55;;;11.70;63.80;;;;;;5018914;28;20036;-73
2022/11/04 05:37:29;;;;;;;3.72;2.30;;;11.70;63.80;;;;;;5002674;28;20037;-74
2022/11/04 05:39:55;;;;;;;5.13;2.05;;;11.70;63.80;;;;;;5023041;28;20550;-71
2022/11/04 05:42:21;;;;;;;3.70;2.58;;;11.70;63.80;;;;;;5019572;28;20044;-74
2022/11/04 05:44:47;;;;;;;3.75;2.15;;;11.70;63.70;;;;;;4995330;28;20032;-74
2022/11/04 05:47:13;;;;;;;3.28;2.15;;;11.70;63.60;;;;;;5021502;28;20040;-73
2022/11/04 05:49:39;;;;;;;6.18;2.30;;;11.70;63.70;;;;;;5018724;28;20059;-74
2022/11/04 05:52:05;;;;;;;3.17;2.17;;;11.70;63.70;;;;;;5002100;28;20030;-74
2022/11/04 05:54:31;;;;;;;2.72;2.08;;;11.70;63.70;;;;;;5020319;28;20049;-72
2022/11/04 05:56:57;;;;;;;2.80;2.17;;;11.70;63.70;;;;;;5019865;28;20126;-71
2022/11/04 05:59:23;;;;;;;3.13;2.00;;;11.70;63.60;;;;;;5022535;28;20382;-72
2022/11/04 06:01:49;;;;;;;4.03;2.17;;;11.70;63.50;;;;;;5021571;28;20034;-71
2022/11/04 06:04:18;;;;;;;4.95;2.15;;;11.70;63.50;;;;;;5020102;28;20037;-72
2022/11/04 06:06:44;;;;;;;3.38;2.22;;;11.80;63.50;;;;;;5019723;28;20026;-72
2022/11/04 06:09:10;;;;;;;3.55;2.42;;;11.70;63.40;;;;;;5022694;28;20030;-72
2022/11/04 06:11:37;;;;;;;2.00;1.80;;;11.80;63.60;;;;;;5019403;28;20108;-71
2022/11/04 06:14:04;;;;;;;4.78;2.10;;;11.80;63.80;;;;;;5003056;28;20030;-72
2022/11/04 06:16:29;;;;;;;5.15;2.50;;;11.80;63.80;;;;;;5019423;28;20037;-76
2022/11/04 06:18:55;;;;;;;4.38;2.10;;;11.80;63.80;;;;;;5020559;28;20100;-76
2022/11/04 06:21:25;;;;;;;5.15;1.98;;;11.80;63.60;;;;;;5021323;28;20042;-76
2022/11/04 06:23:52;;;;;;;2.80;1.90;;;11.80;63.60;;;;;;5019678;28;20112;-77
2022/11/04 06:26:19;;;;;;;3.13;2.13;;;11.80;63.50;;;;;;5022745;28;20036;-76
2022/11/04 06:28:45;;;;;;;4.47;2.03;;;11.80;63.50;;;;;;5024534;28;20035;-76
2022/11/04 06:31:12;;;;;;;3.53;2.15;;;11.80;63.60;;;;;;5025209;28;20037;-76
2022/11/04 06:33:38;;;;;;;4.07;2.10;;;11.80;63.60;;;;;;5022859;28;20044;-77
2022/11/04 06:36:06;;;;;;;3.75;2.13;;;11.80;63.60;;;;;;5021304;28;20030;-77
2022/11/04 06:38:36;;;;;;;3.47;2.05;;;11.90;63.60;;;;;;5025336;28;20036;-76
2022/11/04 06:41:02;;;;;;;6.05;2.20;;;11.80;63.60;;;;;;5022920;28;20239;-76
2022/11/04 06:43:28;;;;;;;4.00;2.33;;;11.80;63.40;;;;;;5023100;28;20033;-76
2022/11/04 06:45:59;;;;;;;3.10;1.98;;;11.80;63.30;;;;;;5023424;28;20034;-72
2022/11/04 06:48:26;;;;;;;3.00;1.90;;;11.90;63.30;;;;;;5022800;28;20032;-72
2022/11/04 06:50:52;;;;;;;4.70;2.20;;;11.90;63.30;;;;;;5023378;28;20114;-71
2022/11/04 06:53:18;;;;;;;3.45;1.88;;;11.90;63.10;;;;;;5023037;28;20259;-73
2022/11/04 06:55:44;;;;;;;2.72;1.95;;;11.90;63.20;;;;;;5021757;28;20029;-73
2022/11/04 06:58:10;;;;;;;2.85;1.95;;;11.90;63.20;;;;;;5022763;28;20057;-71
2022/11/04 07:00:36;;;;;;;4.78;2.65;;;11.90;63.00;;;;;;5022783;28;20038;-71
2022/11/04 07:03:02;;;;;;;3.65;1.73;;;11.90;63.40;;;;;;4991186;28;20083;-71
2022/11/04 07:05:31;;;;;;;2.42;1.83;;;11.90;63.50;;;;;;5007888;28;20569;-73
2022/11/04 07:07:57;;;;;;;4.93;2.10;;;12.00;63.60;;;;;;5025401;28;20037;-72
2022/11/04 07:10:23;;;;;;;3.25;1.90;;;12.00;63.40;;;;;;5026634;28;20038;-72
2022/11/04 07:12:49;;;;;;;3.45;1.90;;;12.00;63.30;;;;;;5026845;28;20037;-74
2022/11/04 07:15:15;;;;;;;3.38;1.98;;;12.00;63.20;;;;;;5025423;28;20397;-73
2022/11/04 07:17:40;;;;;;;3.42;2.00;;;12.00;63.20;;;;;;5023868;28;20079;-76
2022/11/04 07:20:07;;;;;;;5.40;2.17;;;12.00;63.30;;;;;;5007509;28;20045;-75
2022/11/04 07:22:33;;;;;;;3.33;2.10;;;12.00;63.00;;;;;;5008195;28;20036;-75
2022/11/04 07:24:58;;;;;;;5.65;2.72;;;12.00;63.00;;;;;;5020805;28;20033;-73
2022/11/04 07:27:24;;;;;;;4.20;2.10;;;12.00;63.30;;;;;;5026090;28;20408;-73
2022/11/04 07:29:50;;;;;;;5.38;2.60;;;12.00;63.50;;;;;;5025230;28;20030;-75
2022/11/04 07:32:16;;;;;;;4.13;2.17;;;12.00;63.50;;;;;;5023380;28;20029;-74
2022/11/04 07:34:42;;;;;;;3.33;1.80;;;12.00;63.80;;;;;;5022642;28;20039;-76
2022/11/04 07:37:08;;;;;;;4.10;2.10;;;12.00;63.90;;;;;;5021570;28;20136;-72
2022/11/04 07:39:34;;;;;;;7.53;2.40;;;12.00;63.90;;;;;;5022197;28;20815;-77
2022/11/04 07:41:59;;;;;;;6.63;2.50;;;12.10;64.20;;;;;;5025036;28;20069;-75
2022/11/04 07:44:25;;;;;;;3.95;2.05;;;12.10;64.10;;;;;;5020219;28;20220;-75
2022/11/04 07:46:51;;;;;;;5.47;2.47;;;12.10;64.20;;;;;;5021548;28;20072;-74
2022/11/04 07:49:17;;;;;;;4.72;2.38;;;12.10;64.30;;;;;;5024231;28;20045;-74
2022/11/04 07:51:43;;;;;;;3.50;2.40;;;12.10;64.40;;;;;;5021006;28;20087;-74
2022/11/04 07:54:09;;;;;;;6.15;2.50;;;12.10;64.60;;;;;;5020630;28;20029;-74
2022/11/04 07:56:35;;;;;;;5.35;2.28;;;12.10;64.50;;;;;;5022301;28;20183;-74
2022/11/04 07:59:04;;;;;;;8.93;2.38;;;12.10;64.70;;;;;;5003423;28;20052;-74
2022/11/04 08:01:29;;;;;;;6.03;2.67;;;12.10;64.80;;;;;;4992108;28;20080;-74
2022/11/04 08:03:55;;;;;;;4.88;2.70;;;12.10;64.70;;;;;;5021312;28;20029;-74
2022/11/04 08:06:21;;;;;;;4.82;2.20;;;12.10;65.30;;;;;;5007641;28;20714;-73
2022/11/04 08:08:47;;;;;;;4.38;2.85;;;12.10;64.80;;;;;;5022529;28;20523;-74
2022/11/04 08:11:16;;;;;;;7.07;2.65;;;12.10;64.90;;;;;;5021486;28;20058;-74
2022/11/04 08:13:45;;;;;;;4.88;2.78;;;12.10;65.00;;;;;;5020468;28;20050;-74
2022/11/04 08:16:14;;;;;;;7.80;2.90;;;12.20;65.20;;;;;;5020440;28;20079;-73
2022/11/04 08:18:41;;;;;;;6.25;2.65;;;12.20;65.30;;;;;;5021450;28;20029;-74
2022/11/04 08:21:08;;;;;;;6.28;2.72;;;12.20;65.40;;;;;;5021874;28;20029;-74
2022/11/04 08:23:34;;;;;;;10.35;3.20;;;12.10;65.30;;;;;;5021251;28;20546;-74
2022/11/04 08:26:00;;;;;;;7.40;3.10;;;12.20;65.40;;;;;;5002425;28;20036;-74
2022/11/04 08:28:28;;;;;;;6.95;3.22;;;12.20;65.40;;;;;;5021275;28;20034;-73
2022/11/04 08:30:57;;;;;;;8.55;3.70;;;12.20;65.60;;;;;;5020793;28;20084;-73
2022/11/04 08:33:25;;;;;;;6.40;3.22;;;12.20;65.50;;;;;;5020197;28;20034;-73
2022/11/04 08:35:52;;;;;;;10.38;4.15;;;12.20;65.50;;;;;;5027214;28;20416;-71
2022/11/04 08:38:18;;;;;;;5.93;3.80;;;12.20;65.40;;;;;;5006387;28;20041;-71
2022/11/04 08:40:45;;;;;;;5.82;3.35;;;12.20;65.30;;;;;;5025576;28;20531;-72
2022/11/04 08:43:11;;;;;;;6.72;3.53;;;12.20;65.30;;;;;;5021840;28;20041;-72
2022/11/04 08:45:46;;;;;;;6.65;3.70;;;12.20;65.20;;;;;;5019603;28;20029;-72
2022/11/04 08:48:14;;;;;;;9.73;4.15;;;12.20;65.40;;;;;;5022625;28;20543;-72
2022/11/04 08:50:40;;;;;;;8.63;3.70;;;12.20;65.40;;;;;;5022234;28;20602;-72
2022/11/04 08:53:06;;;;;;;10.73;3.75;;;12.20;65.40;;;;;;5019903;28;20057;-72
2022/11/04 08:55:32;;;;;;;8.15;3.80;;;12.20;65.50;;;;;;5022292;28;20075;-72
2022/11/04 08:57:59;;;;;;;6.93;4.10;;;12.20;65.50;;;;;;5020692;28;20041;-72
2022/11/04 09:00:25;;;;;;;7.20;4.00;;;12.30;65.50;;;;;;5020958;28;20496;-71
2022/11/04 09:02:51;;;;;;;6.75;4.25;;;12.20;65.30;;;;;;5019628;28;20051;-72
2022/11/04 09:05:17;;;;;;;8.40;4.13;;;12.20;65.00;;;;;;5019962;28;20029;-72
2022/11/04 09:07:43;;;;;;;7.22;4.40;;;12.30;65.30;;;;;;5018664;28;20026;-71
2022/11/04 09:10:10;;;;;;;10.48;4.38;;;12.30;65.40;;;;;;5021140;28;20091;-71
2022/11/04 09:12:36;;;;;;;7.10;4.30;;;12.30;65.40;;;;;;5004183;28;20049;-71
2022/11/04 09:15:04;;;;;;;8.68;4.53;;;12.30;65.30;;;;;;5020892;28;20033;-71
2022/11/04 09:17:30;;;;;;;9.35;4.43;;;12.30;65.20;;;;;;5020219;28;20048;-71
2022/11/04 09:19:56;;;;;;;8.40;4.60;;;12.30;65.20;;;;;;5021197;28;20033;-72
2022/11/04 09:22:23;;;;;;;6.25;4.50;;;12.30;65.10;;;;;;5001824;28;20084;-73
2022/11/04 09:24:49;;;;;;;7.57;4.18;;;12.30;65.00;;;;;;5020119;28;20120;-72
2022/11/04 09:27:14;;;;;;;9.32;4.63;;;12.30;64.90;;;;;;5019528;28;20116;-72
2022/11/04 09:29:40;;;;;;;6.35;4.30;;;12.30;64.80;;;;;;5020068;28;20045;-73
2022/11/04 09:32:07;;;;;;;6.40;4.30;;;12.30;64.80;;;;;;5019828;28;20042;-72
2022/11/04 09:34:34;;;;;;;7.90;4.97;;;12.30;64.70;;;;;;5020732;28;20145;-72
2022/11/04 09:37:00;;;;;;;8.98;5.10;;;12.30;64.60;;;;;;5020325;28;20048;-72
2022/11/04 09:39:26;;;;;;;7.03;4.85;;;12.30;64.60;;;;;;5018421;28;20033;-72
2022/11/04 09:42:33;;;;;;;7.18;4.30;;;12.30;64.60;;;;;;5019349;28;20500;-72
2022/11/04 09:45:19;;;;;;;;;;;12.30;64.80;;;;;;5017703;28;20041;-73
2022/11/04 09:47:48;;;;;;;6.65;4.57;;;12.40;64.80;;;;;;5020149;28;19920;-73
2022/11/04 09:50:22;;;;;;;7.10;4.20;;;12.40;64.60;;;;;;5017907;28;20107;-72
2022/11/04 09:52:54;;;;;;;9.90;5.15;;;12.30;64.40;;;;;;5019696;28;20392;-72
2022/11/04 09:55:45;;;;;;;10.27;4.97;;;12.40;64.30;;;;;;5020513;28;20083;-72
2022/11/04 09:58:13;;;;;;;8.60;5.18;;;12.30;64.30;;;;;;5002949;28;20068;-71
2022/11/04 10:00:43;;;;;;;7.40;5.10;;;12.40;64.30;;;;;;5023729;28;20431;-72
2022/11/04 10:03:25;;;;;;;8.35;5.47;;;12.30;64.10;;;;;;5026571;28;20037;-72
2022/11/04 10:06:24;;;;;;;9.18;5.07;;;12.40;64.10;;;;;;5025517;28;20030;-72
2022/11/04 10:09:07;;;;;;;8.25;5.10;;;12.40;64.10;;;;;;5021393;28;20118;-73
2022/11/04 10:11:48;;;;;;;7.68;5.38;;;12.30;63.90;;;;;;5010391;28;20041;-73
2022/11/04 10:14:43;;;;;;;9.55;6.15;;;12.40;63.80;;;;;;5004473;28;20038;-73
2022/11/04 10:17:20;;;;;;;8.45;4.90;;;12.40;63.90;;;;;;5023123;28;20037;-72
2022/11/04 10:20:01;;;;;;;8.32;5.43;;;12.40;63.80;;;;;;5025874;28;20037;-73
2022/11/04 10:22:59;;;;;;;10.25;6.88;;;12.40;63.80;;;;;;5024518;28;20163;-73
2022/11/04 10:25:37;;;;;;;9.13;5.60;;;12.40;63.80;;;;;;5014405;28;20038;-73
2022/11/04 10:28:07;;;;;;;10.70;5.90;;;12.40;63.80;;;;;;5022726;28;20440;-73
2022/11/04 10:30:33;;;;;;;13.45;5.45;;;12.40;63.90;;;;;;5023954;28;20496;-72
2022/11/04 10:33:34;;;;;;;12.02;5.97;;;12.40;64.00;;;;;;5022720;28;20397;-73
2022/11/04 10:36:05;;;;;;;12.50;6.13;;;12.40;63.80;;;;;;4928833;29;20043;-73
2022/11/04 10:38:34;;;;;;;8.38;5.57;;;12.40;63.70;;;;;;4928016;29;20562;-73
2022/11/04 10:41:00;;;;;;;11.48;6.03;;;12.40;63.70;;;;;;4928133;29;20040;-72
2022/11/04 10:43:30;;;;;;;12.95;8.20;;;12.40;63.70;;;;;;4929501;29;20032;-73
2022/11/04 10:46:04;;;;;;;13.18;7.72;;;12.30;60.90;;;;;;4928138;29;20048;-73
2022/11/04 10:48:38;;;;;;;15.40;8.20;;;12.20;59.00;;;;;;4928423;29;20168;-72
2022/11/04 10:51:05;;;;;;;13.35;8.23;;;12.00;57.70;;;;;;4928270;29;20138;-72
2022/11/04 10:53:33;;;;;;;14.45;8.45;;;11.90;57.10;;;;;;4927479;29;20035;-72
2022/11/04 10:56:16;;;;;;;17.00;8.98;;;11.70;56.80;;;;;;4912748;29;20077;-72
2022/11/04 10:58:45;;;;;;;15.60;8.20;;;11.60;57.30;;;;;;4929283;29;20178;-71
2022/11/04 11:01:32;;;;;;;13.38;8.13;;;11.40;57.50;;;;;;4928587;29;20035;-71
2022/11/04 11:03:59;;;;;;;15.90;8.27;;;11.30;57.60;;;;;;4927690;29;20587;-73
2022/11/04 11:06:33;;;;;;;14.40;8.30;;;11.20;57.50;;;;;;4928640;29;20059;-71
2022/11/04 11:09:18;;;;;;;11.57;7.80;;;11.10;57.80;;;;;;4926937;29;20031;-72
2022/11/04 11:11:49;;;;;;;11.80;7.93;;;11.10;57.80;;;;;;4978666;28;20048;-71
2022/11/04 11:14:18;;;;;;;12.75;8.00;;;11.00;57.70;;;;;;5022709;28;20393;-71
2022/11/04 11:16:44;;;;;;;12.57;7.65;;;10.90;57.60;;;;;;5023404;28;20461;-73
2022/11/04 11:19:10;;;;;;;12.65;7.85;;;10.80;57.80;;;;;;5021440;28;20120;-73
2022/11/04 11:21:50;;;;;;;13.70;7.90;;;10.80;57.90;;;;;;5021325;28;20163;-73
2022/11/04 11:24:24;;;;;;;14.40;8.95;;;10.70;58.00;;;;;;5020081;28;20472;-72
2022/11/04 11:27:10;;;;;;;13.13;7.47;;;10.60;58.10;;;;;;5022873;28;20461;-73
2022/11/04 11:29:41;;;;;;;14.27;8.63;;;10.60;58.40;;;;;;5021536;28;20022;-73
2022/11/04 11:32:42;;;;;;;15.88;9.45;;;10.50;58.40;;;;;;5022245;28;20033;-72
2022/11/04 11:35:20;;;;;;;14.85;9.00;;;10.50;58.50;;;;;;5007059;28;20103;-73
2022/11/04 11:37:46;;;;;;;12.48;8.15;;;10.40;58.60;;;;;;5003939;28;20045;-73
2022/11/04 11:40:26;;;;;;;13.00;8.38;;;10.30;58.50;;;;;;5003845;28;20389;-73
2022/11/04 11:42:53;;;;;;;17.08;7.93;;;10.30;58.80;;;;;;5022456;28;20033;-73
2022/11/04 11:45:22;;;;;;;13.68;8.23;;;10.30;59.00;;;;;;5023449;28;20427;-72
2022/11/04 11:47:53;;;;;;;14.13;8.95;;;10.20;58.90;;;;;;5023127;28;20512;-73
2022/11/04 11:50:30;;;;;;;12.98;8.23;;;10.20;59.50;;;;;;5006793;28;20136;-72
2022/11/04 11:53:17;;;;;;;14.10;8.52;;;10.20;59.00;;;;;;5021226;28;20424;-72
2022/11/04 11:55:53;;;;;;;17.17;9.00;;;10.10;59.00;;;;;;5017385;28;20026;-72
2022/11/04 11:58:28;;;;;;;13.25;8.05;;;10.10;59.00;;;;;;5022980;28;20033;-72
2022/11/04 12:01:14;;;;;;;15.23;8.02;;;10.10;59.40;;;;;;5022412;28;20090;-72
2022/11/04 12:03:47;;;;;;;15.10;7.65;;;10.10;60.50;;;;;;5020888;28;20258;-72
2022/11/04 12:06:37;;;;;;;12.93;7.13;;;10.20;61.00;;;;;;5020875;28;20025;-73
2022/11/04 12:09:17;;;;;;;13.38;7.50;;;10.30;61.20;;;;;;5020753;28;20311;-73
2022/11/04 12:12:02;;;;;;;11.88;7.15;;;10.40;61.30;;;;;;5020635;28;20200;-73
2022/11/04 12:15:02;;;;;;;13.23;6.65;;;10.50;61.50;;;;;;5003139;28;20456;-74
2022/11/04 12:18:00;;;;;;;13.50;7.00;;;10.60;61.60;;;;;;4989111;28;20493;-74
2022/11/04 12:20:53;;;;;;;13.27;7.30;;;10.60;61.70;;;;;;4986846;28;20038;-74
2022/11/04 12:23:37;;;;;;;12.82;6.47;;;10.70;61.90;;;;;;5020554;28;20037;-74
2022/11/04 12:26:03;;;;;;;12.38;6.75;;;10.80;61.90;;;;;;5022168;28;20044;-74
2022/11/04 12:28:48;;;;;;;11.90;7.22;;;10.80;61.80;;;;;;5022631;28;20555;-73
2022/11/04 12:31:22;;;;;;;11.98;6.65;;;10.80;61.70;;;;;;5022140;28;20116;-72
2022/11/04 12:34:17;;;;;;;13.33;7.37;;;10.90;61.70;;;;;;5020222;28;20404;-73
2022/11/04 12:37:01;;;;;;;13.20;7.47;;;10.90;61.30;;;;;;5020009;28;20041;-73
2022/11/04 12:39:36;;;;;;;13.52;7.60;;;10.90;60.80;;;;;;5019072;28;20026;-72
2022/11/04 12:42:16;;;;;;;10.67;6.97;;;11.00;60.50;;;;;;5003363;28;20080;-72
2022/11/04 12:45:07;;;;;;;14.35;7.53;;;11.00;60.60;;;;;;5022443;28;20086;-72
2022/11/04 12:47:42;;;;;;;12.02;7.38;;;11.00;60.40;;;;;;5021250;28;20056;-72
2022/11/04 12:50:16;;;;;;;11.27;7.30;;;11.00;60.40;;;;;;5021036;28;20095;-72
2022/11/04 12:52:57;;;;;;;13.05;7.88;;;11.00;60.30;;;;;;5019842;28;20284;-72
2022/11/04 12:55:35;;;;;;;18.20;7.68;;;11.00;60.20;;;;;;5020817;28;20026;-70
2022/11/04 12:58:21;;;;;;;13.18;7.78;;;11.00;60.10;;;;;;5021459;28;20503;-70
2022/11/04 13:00:56;;;;;;;13.27;8.10;;;11.00;60.20;;;;;;5020501;28;20424;-72
2022/11/04 13:03:50;;;;;;;13.50;7.60;;;11.00;60.20;;;;;;5002571;28;20523;-72
2022/11/04 13:06:47;;;;;;;11.50;7.60;;;11.00;60.10;;;;;;5017599;28;20033;-72
2022/11/04 13:09:53;;;;;;;13.88;7.43;;;11.00;60.20;;;;;;5019853;28;20025;-72
2022/11/04 13:12:31;;;;;;;11.18;7.10;;;11.00;60.20;;;;;;5019589;28;20112;-72
2022/11/04 13:15:03;;;;;;;13.63;7.38;;;11.00;60.40;;;;;;5021441;28;20026;-72
2022/11/04 13:17:34;;;;;;;14.07;7.78;;;11.00;60.40;;;;;;5019885;28;20048;-72
2022/11/04 13:20:12;;;;;;;11.98;8.15;;;11.00;60.40;;;;;;5017871;28;20419;-73
2022/11/04 13:22:45;;;;;;;11.43;7.25;;;11.00;60.30;;;;;;5023918;28;20404;-72
2022/11/04 13:25:28;;;;;;;12.45;7.65;;;11.00;60.30;;;;;;5017604;28;20124;-72
2022/11/04 13:27:54;;;;;;;13.15;7.43;;;10.90;60.20;;;;;;5019775;28;20126;-73
2022/11/04 13:30:28;;;;;;;17.52;8.40;;;10.90;60.10;;;;;;5019922;28;20479;-73
2022/11/04 13:33:26;;;;;;;13.73;8.05;;;10.90;60.10;;;;;;5003660;28;20547;-72
2022/11/04 13:36:06;;;;;;;12.60;7.90;;;10.90;60.10;;;;;;4924666;29;20462;-74
2022/11/04 13:38:37;;;;;;;12.73;7.85;;;10.90;60.00;;;;;;4926630;29;20046;-73
2022/11/04 13:41:28;;;;;;;22.38;9.00;;;10.90;60.00;;;;;;4925170;29;20044;-73
2022/11/04 13:43:56;;;;;;;13.68;7.80;;;10.90;60.10;;;;;;4926524;29;20043;-74
2022/11/04 13:46:28;;;;;;;14.52;7.97;;;10.90;60.10;;;;;;4926271;29;20044;-73
2022/11/04 13:49:00;;;;;;;15.50;7.57;;;10.80;60.10;;;;;;4926064;29;20038;-73